This is the latest recevied weather packets stored in our database for station/object 4S6DRJ-13. If no packets are shown the sender has not sent any weather packets the latest 10 day(s).
| Time | Temp. | Humidity | Pressure | Rain* | Wind** | Luminosity | Snow |
|---|---|---|---|---|---|---|---|
| 1787588181 | 28.33° C | 83% | 1011.7 hPa | 0 mm | 1.79 m/s, 254° | 0 W/m² | - |
| 1787588120 | 28.33° C | 83% | 1011.8 hPa | 0 mm | 0.89 m/s, 210° | 0 W/m² | - |
| 1787588059 | 28.33° C | 83% | 1011.6 hPa | 0 mm | 0.89 m/s, 182° | 0 W/m² | - |
| 1787587998 | 28.33° C | 83% | 1011.5 hPa | 0 mm | 2.24 m/s, 235° | 0 W/m² | - |
| 1787587937 | 27.78° C | 83% | 1011.7 hPa | 0 mm | 1.79 m/s, 240° | 0 W/m² | - |
| 1787587876 | 27.78° C | 83% | 1011.5 hPa | 0 mm | 2.24 m/s, 229° | 0 W/m² | - |
| 1787587815 | 27.78° C | 83% | 1011.5 hPa | 0 mm | 1.79 m/s, 184° | 0 W/m² | - |
| 1787587754 | 27.78° C | 83% | 1011.8 hPa | 0 mm | 0.45 m/s, 218° | 0 W/m² | - |
| 1787587693 | 27.78° C | 83% | 1011.6 hPa | 0 mm | 0.89 m/s, 168° | 0 W/m² | - |
| 1787587632 | 27.78° C | 84% | 1011.6 hPa | 0 mm | 1.34 m/s, 220° | 0 W/m² | - |
| 1787587571 | 27.78° C | 84% | 1011.6 hPa | 0 mm | 0.89 m/s, 229° | 0 W/m² | - |
| 1787587510 | 27.78° C | 84% | 1011.7 hPa | 0 mm | 0.45 m/s, 201° | 0 W/m² | - |
| 1787587449 | 27.78° C | 84% | 1011.6 hPa | 0 mm | 0.89 m/s, 264° | 0 W/m² | - |
| 1787587388 | 27.78° C | 84% | 1011.6 hPa | 0 mm | 1.34 m/s, 182° | 0 W/m² | - |
| 1787587327 | 27.78° C | 84% | 1011.7 hPa | 0 mm | 0.89 m/s, 272° | 0 W/m² | - |
| 1787587266 | 27.78° C | 84% | 1011.5 hPa | 0 mm | 1.34 m/s, 221° | 0 W/m² | - |
| 1787587205 | 27.78° C | 84% | 1011.6 hPa | 0 mm | 1.34 m/s, 234° | 0 W/m² | - |
| 1787587144 | 27.78° C | 85% | 1011.6 hPa | 0 mm | 1.79 m/s, 220° | 0 W/m² | - |
| 1787587083 | 27.78° C | 85% | 1011.6 hPa | 0 mm | 1.34 m/s, 207° | 0 W/m² | - |
| 1787587022 | 27.78° C | 85% | 1011.5 hPa | 0 mm | 0.89 m/s, 222° | 0 W/m² | - |
| 1787586961 | 27.78° C | 85% | 1011.4 hPa | 0 mm | 0.45 m/s, 237° | 0 W/m² | - |
| 1787586900 | 27.78° C | 85% | 1011.5 hPa | 0 mm | 1.34 m/s, 224° | 0 W/m² | - |
| 1787586778 | 27.78° C | 85% | 1011.5 hPa | 0 mm | 1.34 m/s, 290° | 0 W/m² | - |
| 1787586717 | 27.78° C | 85% | 1011.4 hPa | 0 mm | 0.89 m/s, 227° | 0 W/m² | - |
| 1787586657 | 27.78° C | 85% | 1011.3 hPa | 0 mm | 0.89 m/s, 219° | 0 W/m² | - |
* Rain latest hour (hover to see other rain measurements)
** Current wind speed in m/s (hover to see current wind gust speed)